sensor_id;sensor_type;location;lat;lon;timestamp;P1;durP1;ratioP1;P2;durP2;ratioP2
28245;SDS011;15510;52.512;13.300;2022-10-17T00:00:36;9.88;;;5.47;;
28245;SDS011;15510;52.512;13.300;2022-10-17T00:03:02;6.00;;;4.45;;
28245;SDS011;15510;52.512;13.300;2022-10-17T00:05:28;6.35;;;5.00;;
28245;SDS011;15510;52.512;13.300;2022-10-17T00:07:53;6.20;;;4.60;;
28245;SDS011;15510;52.512;13.300;2022-10-17T00:10:19;6.45;;;4.82;;
28245;SDS011;15510;52.512;13.300;2022-10-17T00:12:45;6.13;;;4.38;;
28245;SDS011;15510;52.512;13.300;2022-10-17T00:15:14;6.15;;;4.55;;
28245;SDS011;15510;52.512;13.300;2022-10-17T00:17:41;5.45;;;4.35;;
28245;SDS011;15510;52.512;13.300;2022-10-17T00:20:07;5.75;;;4.70;;
28245;SDS011;15510;52.512;13.300;2022-10-17T00:22:33;8.30;;;4.65;;
28245;SDS011;15510;52.512;13.300;2022-10-17T00:24:58;8.60;;;4.75;;
28245;SDS011;15510;52.512;13.300;2022-10-17T00:27:24;6.65;;;4.72;;
28245;SDS011;15510;52.512;13.300;2022-10-17T00:29:50;5.97;;;4.95;;
28245;SDS011;15510;52.512;13.300;2022-10-17T00:32:16;6.95;;;4.65;;
28245;SDS011;15510;52.512;13.300;2022-10-17T00:34:43;8.02;;;4.53;;
28245;SDS011;15510;52.512;13.300;2022-10-17T00:37:09;5.72;;;4.85;;
28245;SDS011;15510;52.512;13.300;2022-10-17T00:39:35;8.23;;;4.70;;
28245;SDS011;15510;52.512;13.300;2022-10-17T00:42:00;4.75;;;4.10;;
28245;SDS011;15510;52.512;13.300;2022-10-17T00:46:55;5.20;;;4.50;;
28245;SDS011;15510;52.512;13.300;2022-10-17T00:49:21;6.55;;;3.95;;
28245;SDS011;15510;52.512;13.300;2022-10-17T00:51:53;4.03;;;3.63;;
28245;SDS011;15510;52.512;13.300;2022-10-17T00:54:24;5.57;;;4.28;;
28245;SDS011;15510;52.512;13.300;2022-10-17T00:56:54;7.32;;;3.70;;
28245;SDS011;15510;52.512;13.300;2022-10-17T00:59:20;7.50;;;4.03;;
28245;SDS011;15510;52.512;13.300;2022-10-17T01:01:50;6.85;;;4.13;;
28245;SDS011;15510;52.512;13.300;2022-10-17T01:04:25;4.82;;;4.15;;
28245;SDS011;15510;52.512;13.300;2022-10-17T01:06:51;6.65;;;4.55;;
28245;SDS011;15510;52.512;13.300;2022-10-17T01:09:16;5.53;;;4.38;;
28245;SDS011;15510;52.512;13.300;2022-10-17T01:14:27;6.30;;;4.57;;
28245;SDS011;15510;52.512;13.300;2022-10-17T01:17:10;6.05;;;4.10;;
28245;SDS011;15510;52.512;13.300;2022-10-17T01:20:01;6.18;;;3.83;;
28245;SDS011;15510;52.512;13.300;2022-10-17T01:22:42;6.60;;;4.20;;
28245;SDS011;15510;52.512;13.300;2022-10-17T01:25:36;5.78;;;4.35;;
28245;SDS011;15510;52.512;13.300;2022-10-17T01:28:40;5.45;;;4.30;;
28245;SDS011;15510;52.512;13.300;2022-10-17T01:31:27;6.05;;;4.43;;
28245;SDS011;15510;52.512;13.300;2022-10-17T01:34:02;6.18;;;4.30;;
28245;SDS011;15510;52.512;13.300;2022-10-17T01:39:30;4.60;;;4.20;;
28245;SDS011;15510;52.512;13.300;2022-10-17T01:42:14;5.65;;;4.47;;
28245;SDS011;15510;52.512;13.300;2022-10-17T01:47:23;12.00;;;4.47;;
28245;SDS011;15510;52.512;13.300;2022-10-17T01:49:53;6.55;;;4.07;;
28245;SDS011;15510;52.512;13.300;2022-10-17T01:52:26;5.65;;;4.30;;
28245;SDS011;15510;52.512;13.300;2022-10-17T01:55:09;5.93;;;4.65;;
28245;SDS011;15510;52.512;13.300;2022-10-17T01:57:40;5.93;;;4.72;;
28245;SDS011;15510;52.512;13.300;2022-10-17T02:00:16;7.43;;;4.50;;
28245;SDS011;15510;52.512;13.300;2022-10-17T02:02:51;4.35;;;3.97;;
28245;SDS011;15510;52.512;13.300;2022-10-17T02:05:24;6.07;;;4.47;;
28245;SDS011;15510;52.512;13.300;2022-10-17T02:07:53;6.88;;;3.92;;
28245;SDS011;15510;52.512;13.300;2022-10-17T02:10:21;4.97;;;4.50;;
28245;SDS011;15510;52.512;13.300;2022-10-17T02:21:07;5.63;;;4.20;;
28245;SDS011;15510;52.512;13.300;2022-10-17T02:26:43;4.65;;;4.25;;
28245;SDS011;15510;52.512;13.300;2022-10-17T02:29:27;5.47;;;4.32;;
28245;SDS011;15510;52.512;13.300;2022-10-17T02:32:03;5.53;;;4.05;;
28245;SDS011;15510;52.512;13.300;2022-10-17T02:34:32;4.40;;;3.88;;
28245;SDS011;15510;52.512;13.300;2022-10-17T02:37:04;5.03;;;4.50;;
28245;SDS011;15510;52.512;13.300;2022-10-17T02:39:32;4.35;;;3.95;;
28245;SDS011;15510;52.512;13.300;2022-10-17T02:42:01;4.72;;;4.00;;
28245;SDS011;15510;52.512;13.300;2022-10-17T02:44:29;6.40;;;4.25;;
28245;SDS011;15510;52.512;13.300;2022-10-17T02:46:58;5.63;;;4.22;;
28245;SDS011;15510;52.512;13.300;2022-10-17T02:49:32;7.90;;;4.60;;
28245;SDS011;15510;52.512;13.300;2022-10-17T02:52:10;4.95;;;4.32;;
28245;SDS011;15510;52.512;13.300;2022-10-17T02:54:50;4.30;;;4.00;;
28245;SDS011;15510;52.512;13.300;2022-10-17T02:57:26;5.55;;;4.63;;
28245;SDS011;15510;52.512;13.300;2022-10-17T02:59:58;5.32;;;4.20;;
28245;SDS011;15510;52.512;13.300;2022-10-17T03:02:26;5.15;;;4.65;;
28245;SDS011;15510;52.512;13.300;2022-10-17T03:04:52;7.43;;;5.35;;
28245;SDS011;15510;52.512;13.300;2022-10-17T03:07:18;4.40;;;4.07;;
28245;SDS011;15510;52.512;13.300;2022-10-17T03:09:44;4.90;;;4.50;;
28245;SDS011;15510;52.512;13.300;2022-10-17T03:12:09;4.18;;;3.88;;
28245;SDS011;15510;52.512;13.300;2022-10-17T03:14:35;4.82;;;4.43;;
28245;SDS011;15510;52.512;13.300;2022-10-17T03:17:02;4.38;;;3.97;;
28245;SDS011;15510;52.512;13.300;2022-10-17T03:19:27;5.22;;;4.60;;
28245;SDS011;15510;52.512;13.300;2022-10-17T03:21:53;6.32;;;4.88;;
28245;SDS011;15510;52.512;13.300;2022-10-17T03:24:20;5.45;;;4.90;;
28245;SDS011;15510;52.512;13.300;2022-10-17T03:26:46;4.72;;;4.30;;
28245;SDS011;15510;52.512;13.300;2022-10-17T03:29:12;4.75;;;4.35;;
28245;SDS011;15510;52.512;13.300;2022-10-17T03:31:38;10.20;;;4.32;;
28245;SDS011;15510;52.512;13.300;2022-10-17T03:34:05;4.30;;;4.00;;
28245;SDS011;15510;52.512;13.300;2022-10-17T03:36:31;4.95;;;3.88;;
28245;SDS011;15510;52.512;13.300;2022-10-17T03:38:56;4.65;;;4.25;;
28245;SDS011;15510;52.512;13.300;2022-10-17T03:41:22;4.63;;;4.22;;
28245;SDS011;15510;52.512;13.300;2022-10-17T03:43:52;6.15;;;4.88;;
28245;SDS011;15510;52.512;13.300;2022-10-17T03:46:18;7.65;;;4.57;;
28245;SDS011;15510;52.512;13.300;2022-10-17T03:48:45;5.20;;;4.80;;
28245;SDS011;15510;52.512;13.300;2022-10-17T03:51:10;8.32;;;4.85;;
28245;SDS011;15510;52.512;13.300;2022-10-17T03:53:43;4.82;;;4.35;;
28245;SDS011;15510;52.512;13.300;2022-10-17T03:56:10;5.43;;;4.53;;
28245;SDS011;15510;52.512;13.300;2022-10-17T03:58:47;5.25;;;4.28;;
28245;SDS011;15510;52.512;13.300;2022-10-17T04:01:15;7.38;;;4.63;;
28245;SDS011;15510;52.512;13.300;2022-10-17T04:03:43;4.90;;;4.50;;
28245;SDS011;15510;52.512;13.300;2022-10-17T04:06:13;6.95;;;5.07;;
28245;SDS011;15510;52.512;13.300;2022-10-17T04:08:41;5.03;;;4.53;;
28245;SDS011;15510;52.512;13.300;2022-10-17T04:11:18;5.90;;;4.70;;
28245;SDS011;15510;52.512;13.300;2022-10-17T04:13:45;6.03;;;4.97;;
28245;SDS011;15510;52.512;13.300;2022-10-17T04:16:12;4.93;;;4.43;;
28245;SDS011;15510;52.512;13.300;2022-10-17T04:18:57;4.95;;;4.55;;
28245;SDS011;15510;52.512;13.300;2022-10-17T04:21:26;5.10;;;4.70;;
28245;SDS011;15510;52.512;13.300;2022-10-17T04:23:57;5.30;;;4.82;;
28245;SDS011;15510;52.512;13.300;2022-10-17T04:26:40;5.13;;;4.55;;
28245;SDS011;15510;52.512;13.300;2022-10-17T04:29:06;5.38;;;4.82;;
28245;SDS011;15510;52.512;13.300;2022-10-17T04:31:32;8.38;;;5.22;;
28245;SDS011;15510;52.512;13.300;2022-10-17T04:34:18;5.13;;;4.72;;
28245;SDS011;15510;52.512;13.300;2022-10-17T04:36:44;4.95;;;4.57;;
28245;SDS011;15510;52.512;13.300;2022-10-17T04:39:11;5.57;;;5.15;;
28245;SDS011;15510;52.512;13.300;2022-10-17T04:41:37;9.68;;;5.43;;
28245;SDS011;15510;52.512;13.300;2022-10-17T04:44:03;8.95;;;5.13;;
28245;SDS011;15510;52.512;13.300;2022-10-17T04:46:32;5.05;;;4.65;;
28245;SDS011;15510;52.512;13.300;2022-10-17T04:48:58;4.93;;;4.53;;
28245;SDS011;15510;52.512;13.300;2022-10-17T04:51:24;5.55;;;4.88;;
28245;SDS011;15510;52.512;13.300;2022-10-17T04:54:08;8.18;;;5.03;;
28245;SDS011;15510;52.512;13.300;2022-10-17T04:56:35;7.00;;;4.97;;
28245;SDS011;15510;52.512;13.300;2022-10-17T04:59:01;6.15;;;4.70;;
28245;SDS011;15510;52.512;13.300;2022-10-17T05:01:27;6.22;;;4.95;;
28245;SDS011;15510;52.512;13.300;2022-10-17T05:03:53;6.18;;;5.20;;
28245;SDS011;15510;52.512;13.300;2022-10-17T05:06:21;5.47;;;4.85;;
28245;SDS011;15510;52.512;13.300;2022-10-17T05:09:07;7.60;;;5.60;;
28245;SDS011;15510;52.512;13.300;2022-10-17T05:11:33;5.78;;;5.03;;
28245;SDS011;15510;52.512;13.300;2022-10-17T05:14:00;4.82;;;4.43;;
28245;SDS011;15510;52.512;13.300;2022-10-17T05:16:27;7.88;;;5.40;;
28245;SDS011;15510;52.512;13.300;2022-10-17T05:18:55;5.45;;;4.97;;
28245;SDS011;15510;52.512;13.300;2022-10-17T05:21:22;5.93;;;5.32;;
28245;SDS011;15510;52.512;13.300;2022-10-17T05:23:49;6.45;;;4.97;;
28245;SDS011;15510;52.512;13.300;2022-10-17T05:26:16;9.82;;;5.35;;
28245;SDS011;15510;52.512;13.300;2022-10-17T05:28:42;5.18;;;4.68;;
28245;SDS011;15510;52.512;13.300;2022-10-17T05:31:09;7.32;;;5.22;;
28245;SDS011;15510;52.512;13.300;2022-10-17T05:33:36;5.70;;;4.60;;
28245;SDS011;15510;52.512;13.300;2022-10-17T05:36:02;6.68;;;4.82;;
28245;SDS011;15510;52.512;13.300;2022-10-17T05:38:28;5.13;;;4.63;;
28245;SDS011;15510;52.512;13.300;2022-10-17T05:40:58;5.80;;;5.28;;
28245;SDS011;15510;52.512;13.300;2022-10-17T05:43:24;4.93;;;4.50;;
28245;SDS011;15510;52.512;13.300;2022-10-17T05:45:51;17.02;;;5.45;;
28245;SDS011;15510;52.512;13.300;2022-10-17T05:48:19;6.57;;;4.90;;
28245;SDS011;15510;52.512;13.300;2022-10-17T05:50:45;5.53;;;4.70;;
28245;SDS011;15510;52.512;13.300;2022-10-17T05:53:15;6.55;;;5.30;;
28245;SDS011;15510;52.512;13.300;2022-10-17T05:55:54;5.10;;;4.70;;
28245;SDS011;15510;52.512;13.300;2022-10-17T05:58:21;6.13;;;4.63;;
28245;SDS011;15510;52.512;13.300;2022-10-17T06:00:48;6.78;;;5.60;;
28245;SDS011;15510;52.512;13.300;2022-10-17T06:03:14;5.40;;;4.85;;
28245;SDS011;15510;52.512;13.300;2022-10-17T06:05:40;6.18;;;4.72;;
28245;SDS011;15510;52.512;13.300;2022-10-17T06:08:06;6.50;;;5.47;;
28245;SDS011;15510;52.512;13.300;2022-10-17T06:10:34;5.82;;;5.00;;
28245;SDS011;15510;52.512;13.300;2022-10-17T06:13:00;10.35;;;6.68;;
28245;SDS011;15510;52.512;13.300;2022-10-17T06:15:25;6.15;;;4.95;;
28245;SDS011;15510;52.512;13.300;2022-10-17T06:17:59;7.20;;;4.93;;
28245;SDS011;15510;52.512;13.300;2022-10-17T06:20:25;7.78;;;4.97;;
28245;SDS011;15510;52.512;13.300;2022-10-17T06:22:51;7.40;;;4.63;;
28245;SDS011;15510;52.512;13.300;2022-10-17T06:25:26;5.07;;;4.55;;
28245;SDS011;15510;52.512;13.300;2022-10-17T06:27:53;6.05;;;4.90;;
28245;SDS011;15510;52.512;13.300;2022-10-17T06:30:20;7.65;;;4.95;;
28245;SDS011;15510;52.512;13.300;2022-10-17T06:32:46;7.32;;;5.20;;
28245;SDS011;15510;52.512;13.300;2022-10-17T06:35:11;5.40;;;4.57;;
28245;SDS011;15510;52.512;13.300;2022-10-17T06:42:55;9.88;;;4.35;;
28245;SDS011;15510;52.512;13.300;2022-10-17T06:45:24;10.23;;;4.47;;
28245;SDS011;15510;52.512;13.300;2022-10-17T06:48:21;7.35;;;4.32;;
28245;SDS011;15510;52.512;13.300;2022-10-17T06:51:06;8.25;;;5.53;;
28245;SDS011;15510;52.512;13.300;2022-10-17T06:53:43;5.07;;;4.60;;
28245;SDS011;15510;52.512;13.300;2022-10-17T06:56:24;5.72;;;5.07;;
28245;SDS011;15510;52.512;13.300;2022-10-17T06:59:09;7.93;;;4.70;;
28245;SDS011;15510;52.512;13.300;2022-10-17T07:01:36;7.90;;;5.13;;
28245;SDS011;15510;52.512;13.300;2022-10-17T07:04:03;7.82;;;4.85;;
28245;SDS011;15510;52.512;13.300;2022-10-17T07:06:29;7.15;;;5.35;;
28245;SDS011;15510;52.512;13.300;2022-10-17T07:08:59;12.02;;;5.30;;
28245;SDS011;15510;52.512;13.300;2022-10-17T07:11:27;8.25;;;3.85;;
28245;SDS011;15510;52.512;13.300;2022-10-17T07:13:52;7.85;;;4.10;;
28245;SDS011;15510;52.512;13.300;2022-10-17T07:16:19;7.68;;;4.22;;
28245;SDS011;15510;52.512;13.300;2022-10-17T07:18:50;10.55;;;4.28;;
28245;SDS011;15510;52.512;13.300;2022-10-17T07:21:17;11.60;;;4.05;;
28245;SDS011;15510;52.512;13.300;2022-10-17T07:23:42;6.53;;;4.63;;
28245;SDS011;15510;52.512;13.300;2022-10-17T07:26:09;4.40;;;4.00;;
28245;SDS011;15510;52.512;13.300;2022-10-17T07:28:39;6.50;;;5.13;;
28245;SDS011;15510;52.512;13.300;2022-10-17T07:31:20;11.43;;;4.35;;
28245;SDS011;15510;52.512;13.300;2022-10-17T07:33:46;4.10;;;3.75;;
28245;SDS011;15510;52.512;13.300;2022-10-17T07:36:13;4.32;;;3.92;;
28245;SDS011;15510;52.512;13.300;2022-10-17T07:38:40;4.78;;;3.80;;
28245;SDS011;15510;52.512;13.300;2022-10-17T07:41:07;5.22;;;3.28;;
28245;SDS011;15510;52.512;13.300;2022-10-17T07:43:35;4.95;;;3.63;;
28245;SDS011;15510;52.512;13.300;2022-10-17T07:46:01;5.05;;;3.50;;
28245;SDS011;15510;52.512;13.300;2022-10-17T07:48:28;8.52;;;3.47;;
28245;SDS011;15510;52.512;13.300;2022-10-17T07:50:54;6.55;;;3.63;;
28245;SDS011;15510;52.512;13.300;2022-10-17T07:53:20;4.30;;;3.45;;
28245;SDS011;15510;52.512;13.300;2022-10-17T07:55:46;4.10;;;3.70;;
28245;SDS011;15510;52.512;13.300;2022-10-17T07:58:13;6.57;;;3.85;;
28245;SDS011;15510;52.512;13.300;2022-10-17T08:00:40;6.03;;;3.50;;
28245;SDS011;15510;52.512;13.300;2022-10-17T08:03:06;3.17;;;2.88;;
28245;SDS011;15510;52.512;13.300;2022-10-17T08:05:32;4.95;;;3.67;;
28245;SDS011;15510;52.512;13.300;2022-10-17T08:07:58;3.30;;;3.00;;
28245;SDS011;15510;52.512;13.300;2022-10-17T08:10:23;3.67;;;2.70;;
28245;SDS011;15510;52.512;13.300;2022-10-17T08:12:54;3.70;;;3.10;;
28245;SDS011;15510;52.512;13.300;2022-10-17T08:15:20;3.05;;;2.75;;
28245;SDS011;15510;52.512;13.300;2022-10-17T08:17:47;3.60;;;2.75;;
28245;SDS011;15510;52.512;13.300;2022-10-17T08:20:13;5.10;;;3.10;;
28245;SDS011;15510;52.512;13.300;2022-10-17T08:22:39;5.40;;;3.20;;
28245;SDS011;15510;52.512;13.300;2022-10-17T08:25:05;5.38;;;3.00;;
28245;SDS011;15510;52.512;13.300;2022-10-17T08:27:32;6.43;;;2.78;;
28245;SDS011;15510;52.512;13.300;2022-10-17T08:29:58;2.63;;;2.42;;
28245;SDS011;15510;52.512;13.300;2022-10-17T08:32:25;4.90;;;3.10;;
28245;SDS011;15510;52.512;13.300;2022-10-17T08:34:52;3.90;;;2.40;;
28245;SDS011;15510;52.512;13.300;2022-10-17T08:37:19;2.88;;;2.15;;
28245;SDS011;15510;52.512;13.300;2022-10-17T08:39:46;5.15;;;2.75;;
28245;SDS011;15510;52.512;13.300;2022-10-17T08:42:24;4.72;;;2.40;;
28245;SDS011;15510;52.512;13.300;2022-10-17T08:45:22;5.15;;;2.60;;
28245;SDS011;15510;52.512;13.300;2022-10-17T08:48:01;7.03;;;2.80;;
28245;SDS011;15510;52.512;13.300;2022-10-17T08:50:39;6.50;;;3.00;;
28245;SDS011;15510;52.512;13.300;2022-10-17T08:56:04;4.85;;;2.10;;
28245;SDS011;15510;52.512;13.300;2022-10-17T08:58:37;7.63;;;2.55;;
28245;SDS011;15510;52.512;13.300;2022-10-17T09:01:10;8.55;;;2.42;;
28245;SDS011;15510;52.512;13.300;2022-10-17T09:04:01;8.38;;;2.75;;
28245;SDS011;15510;52.512;13.300;2022-10-17T09:06:34;2.55;;;2.35;;
28245;SDS011;15510;52.512;13.300;2022-10-17T09:09:48;6.50;;;2.40;;
28245;SDS011;15510;52.512;13.300;2022-10-17T09:12:37;3.58;;;2.50;;
28245;SDS011;15510;52.512;13.300;2022-10-17T09:18:36;7.63;;;2.47;;
28245;SDS011;15510;52.512;13.300;2022-10-17T09:23:44;5.93;;;2.35;;
28245;SDS011;15510;52.512;13.300;2022-10-17T09:26:15;3.22;;;2.60;;
28245;SDS011;15510;52.512;13.300;2022-10-17T09:28:41;4.22;;;2.42;;
28245;SDS011;15510;52.512;13.300;2022-10-17T09:31:16;5.40;;;2.33;;
28245;SDS011;15510;52.512;13.300;2022-10-17T09:33:47;9.60;;;2.95;;
28245;SDS011;15510;52.512;13.300;2022-10-17T09:38:46;3.88;;;2.63;;
28245;SDS011;15510;52.512;13.300;2022-10-17T09:41:26;2.92;;;2.38;;
28245;SDS011;15510;52.512;13.300;2022-10-17T09:44:11;6.40;;;2.40;;
28245;SDS011;15510;52.512;13.300;2022-10-17T09:46:38;5.03;;;2.20;;
28245;SDS011;15510;52.512;13.300;2022-10-17T09:49:05;5.28;;;2.38;;
28245;SDS011;15510;52.512;13.300;2022-10-17T09:51:42;3.92;;;1.90;;
28245;SDS011;15510;52.512;13.300;2022-10-17T09:54:16;3.30;;;1.90;;
28245;SDS011;15510;52.512;13.300;2022-10-17T09:56:57;12.30;;;3.13;;
28245;SDS011;15510;52.512;13.300;2022-10-17T09:59:31;3.88;;;2.33;;
28245;SDS011;15510;52.512;13.300;2022-10-17T10:07:31;10.52;;;3.08;;
28245;SDS011;15510;52.512;13.300;2022-10-17T10:10:00;5.35;;;2.47;;
28245;SDS011;15510;52.512;13.300;2022-10-17T10:12:28;5.28;;;2.22;;
28245;SDS011;15510;52.512;13.300;2022-10-17T10:14:56;6.22;;;2.28;;
28245;SDS011;15510;52.512;13.300;2022-10-17T10:17:27;12.15;;;3.58;;
28245;SDS011;15510;52.512;13.300;2022-10-17T10:20:26;6.85;;;2.70;;
28245;SDS011;15510;52.512;13.300;2022-10-17T10:23:06;4.05;;;2.30;;
28245;SDS011;15510;52.512;13.300;2022-10-17T10:25:36;7.60;;;2.00;;
28245;SDS011;15510;52.512;13.300;2022-10-17T10:28:08;3.13;;;2.40;;
28245;SDS011;15510;52.512;13.300;2022-10-17T10:30:35;4.70;;;2.50;;
28245;SDS011;15510;52.512;13.300;2022-10-17T10:33:01;3.00;;;1.92;;
28245;SDS011;15510;52.512;13.300;2022-10-17T10:35:30;5.18;;;1.90;;
28245;SDS011;15510;52.512;13.300;2022-10-17T10:38:00;8.32;;;2.45;;
28245;SDS011;15510;52.512;13.300;2022-10-17T10:40:35;7.00;;;2.05;;
28245;SDS011;15510;52.512;13.300;2022-10-17T10:43:16;4.15;;;2.17;;
28245;SDS011;15510;52.512;13.300;2022-10-17T10:45:47;5.30;;;1.75;;
28245;SDS011;15510;52.512;13.300;2022-10-17T10:48:17;4.70;;;2.22;;
28245;SDS011;15510;52.512;13.300;2022-10-17T10:50:46;5.60;;;2.33;;
28245;SDS011;15510;52.512;13.300;2022-10-17T10:58:52;6.03;;;1.50;;
28245;SDS011;15510;52.512;13.300;2022-10-17T11:01:24;10.65;;;2.22;;
28245;SDS011;15510;52.512;13.300;2022-10-17T11:06:45;2.80;;;1.77;;
28245;SDS011;15510;52.512;13.300;2022-10-17T11:09:22;5.53;;;1.52;;
28245;SDS011;15510;52.512;13.300;2022-10-17T11:12:10;3.10;;;1.70;;
28245;SDS011;15510;52.512;13.300;2022-10-17T11:14:55;4.30;;;2.10;;
28245;SDS011;15510;52.512;13.300;2022-10-17T11:17:51;6.28;;;1.75;;
28245;SDS011;15510;52.512;13.300;2022-10-17T11:20:28;7.05;;;1.90;;
28245;SDS011;15510;52.512;13.300;2022-10-17T11:25:44;12.10;;;1.83;;
28245;SDS011;15510;52.512;13.300;2022-10-17T11:28:11;12.50;;;5.72;;
28245;SDS011;15510;52.512;13.300;2022-10-17T11:30:44;7.70;;;2.30;;
28245;SDS011;15510;52.512;13.300;2022-10-17T11:33:23;7.85;;;2.20;;
28245;SDS011;15510;52.512;13.300;2022-10-17T11:36:07;9.50;;;3.67;;
28245;SDS011;15510;52.512;13.300;2022-10-17T11:41:22;11.80;;;6.38;;
28245;SDS011;15510;52.512;13.300;2022-10-17T11:43:59;2.83;;;1.58;;
28245;SDS011;15510;52.512;13.300;2022-10-17T11:46:47;5.95;;;2.45;;
28245;SDS011;15510;52.512;13.300;2022-10-17T11:49:19;8.30;;;2.95;;
28245;SDS011;15510;52.512;13.300;2022-10-17T11:54:55;6.38;;;2.75;;
28245;SDS011;15510;52.512;13.300;2022-10-17T12:00:36;11.80;;;3.72;;
28245;SDS011;15510;52.512;13.300;2022-10-17T12:06:02;9.05;;;3.88;;
28245;SDS011;15510;52.512;13.300;2022-10-17T12:14:33;4.72;;;2.22;;
28245;SDS011;15510;52.512;13.300;2022-10-17T12:17:03;4.78;;;2.03;;
28245;SDS011;15510;52.512;13.300;2022-10-17T12:19:31;4.53;;;1.92;;
28245;SDS011;15510;52.512;13.300;2022-10-17T12:24:34;5.15;;;2.20;;
28245;SDS011;15510;52.512;13.300;2022-10-17T12:35:24;5.63;;;1.83;;
28245;SDS011;15510;52.512;13.300;2022-10-17T12:43:01;2.97;;;1.80;;
28245;SDS011;15510;52.512;13.300;2022-10-17T12:51:06;7.00;;;2.13;;
28245;SDS011;15510;52.512;13.300;2022-10-17T12:53:37;3.17;;;1.70;;
28245;SDS011;15510;52.512;13.300;2022-10-17T12:56:20;5.13;;;1.73;;
28245;SDS011;15510;52.512;13.300;2022-10-17T12:58:54;5.70;;;1.50;;
28245;SDS011;15510;52.512;13.300;2022-10-17T13:01:26;4.20;;;1.73;;
28245;SDS011;15510;52.512;13.300;2022-10-17T13:03:53;4.90;;;2.03;;
28245;SDS011;15510;52.512;13.300;2022-10-17T13:06:21;5.72;;;1.65;;
28245;SDS011;15510;52.512;13.300;2022-10-17T13:08:50;7.43;;;1.55;;
28245;SDS011;15510;52.512;13.300;2022-10-17T13:11:26;5.88;;;1.60;;
28245;SDS011;15510;52.512;13.300;2022-10-17T13:13:56;7.95;;;2.58;;
28245;SDS011;15510;52.512;13.300;2022-10-17T13:16:31;5.70;;;1.73;;
28245;SDS011;15510;52.512;13.300;2022-10-17T13:19:12;6.00;;;2.28;;
28245;SDS011;15510;52.512;13.300;2022-10-17T13:21:47;4.43;;;1.98;;
28245;SDS011;15510;52.512;13.300;2022-10-17T13:26:57;6.43;;;2.10;;
28245;SDS011;15510;52.512;13.300;2022-10-17T13:29:24;5.18;;;1.95;;
28245;SDS011;15510;52.512;13.300;2022-10-17T13:31:57;4.30;;;1.70;;
28245;SDS011;15510;52.512;13.300;2022-10-17T13:34:26;2.65;;;1.77;;
28245;SDS011;15510;52.512;13.300;2022-10-17T13:36:54;5.30;;;1.60;;
28245;SDS011;15510;52.512;13.300;2022-10-17T13:39:23;9.30;;;1.90;;
28245;SDS011;15510;52.512;13.300;2022-10-17T13:41:51;6.40;;;1.90;;
28245;SDS011;15510;52.512;13.300;2022-10-17T13:44:20;2.72;;;1.20;;
28245;SDS011;15510;52.512;13.300;2022-10-17T13:46:55;3.70;;;1.40;;
28245;SDS011;15510;52.512;13.300;2022-10-17T13:49:27;3.58;;;1.70;;
28245;SDS011;15510;52.512;13.300;2022-10-17T13:51:57;3.10;;;1.50;;
28245;SDS011;15510;52.512;13.300;2022-10-17T13:54:35;3.42;;;1.42;;
28245;SDS011;15510;52.512;13.300;2022-10-17T13:57:05;6.95;;;2.10;;
28245;SDS011;15510;52.512;13.300;2022-10-17T13:59:56;1.40;;;1.20;;
28245;SDS011;15510;52.512;13.300;2022-10-17T14:02:39;4.88;;;1.92;;
28245;SDS011;15510;52.512;13.300;2022-10-17T14:07:39;6.13;;;2.35;;
28245;SDS011;15510;52.512;13.300;2022-10-17T14:10:28;4.20;;;2.45;;
28245;SDS011;15510;52.512;13.300;2022-10-17T14:12:56;8.20;;;2.95;;
28245;SDS011;15510;52.512;13.300;2022-10-17T14:15:26;3.47;;;2.20;;
28245;SDS011;15510;52.512;13.300;2022-10-17T14:17:55;4.10;;;1.88;;
28245;SDS011;15510;52.512;13.300;2022-10-17T14:20:26;4.32;;;2.20;;
28245;SDS011;15510;52.512;13.300;2022-10-17T14:22:53;6.40;;;2.00;;
28245;SDS011;15510;52.512;13.300;2022-10-17T14:30:36;4.32;;;2.55;;
28245;SDS011;15510;52.512;13.300;2022-10-17T14:33:11;7.55;;;1.90;;
28245;SDS011;15510;52.512;13.300;2022-10-17T14:35:47;3.58;;;2.40;;
28245;SDS011;15510;52.512;13.300;2022-10-17T14:38:17;6.75;;;2.50;;
28245;SDS011;15510;52.512;13.300;2022-10-17T14:40:50;18.38;;;3.30;;
28245;SDS011;15510;52.512;13.300;2022-10-17T14:43:20;5.28;;;2.13;;
28245;SDS011;15510;52.512;13.300;2022-10-17T14:45:47;5.13;;;2.22;;
28245;SDS011;15510;52.512;13.300;2022-10-17T14:48:20;6.47;;;2.30;;
28245;SDS011;15510;52.512;13.300;2022-10-17T14:53:35;5.80;;;2.25;;
28245;SDS011;15510;52.512;13.300;2022-10-17T14:56:03;4.18;;;2.10;;
28245;SDS011;15510;52.512;13.300;2022-10-17T14:58:45;4.68;;;2.20;;
28245;SDS011;15510;52.512;13.300;2022-10-17T15:01:10;5.30;;;1.83;;
28245;SDS011;15510;52.512;13.300;2022-10-17T15:03:36;5.38;;;1.98;;
28245;SDS011;15510;52.512;13.300;2022-10-17T15:06:11;3.08;;;1.80;;
28245;SDS011;15510;52.512;13.300;2022-10-17T15:08:45;7.90;;;2.00;;
28245;SDS011;15510;52.512;13.300;2022-10-17T15:11:11;5.38;;;1.95;;
28245;SDS011;15510;52.512;13.300;2022-10-17T15:13:37;2.25;;;2.03;;
28245;SDS011;15510;52.512;13.300;2022-10-17T15:16:14;10.32;;;2.42;;
28245;SDS011;15510;52.512;13.300;2022-10-17T15:18:43;5.03;;;2.33;;
28245;SDS011;15510;52.512;13.300;2022-10-17T15:21:13;5.55;;;2.90;;
28245;SDS011;15510;52.512;13.300;2022-10-17T15:23:40;4.75;;;2.10;;
28245;SDS011;15510;52.512;13.300;2022-10-17T15:28:39;9.48;;;2.47;;
28245;SDS011;15510;52.512;13.300;2022-10-17T15:31:07;11.52;;;3.00;;
28245;SDS011;15510;52.512;13.300;2022-10-17T15:33:37;12.68;;;3.30;;
28245;SDS011;15510;52.512;13.300;2022-10-17T15:36:03;6.63;;;3.05;;
28245;SDS011;15510;52.512;13.300;2022-10-17T15:38:29;6.45;;;3.00;;
28245;SDS011;15510;52.512;13.300;2022-10-17T15:40:54;6.88;;;3.22;;
28245;SDS011;15510;52.512;13.300;2022-10-17T15:43:20;4.80;;;2.80;;
28245;SDS011;15510;52.512;13.300;2022-10-17T15:45:46;6.90;;;2.90;;
28245;SDS011;15510;52.512;13.300;2022-10-17T15:48:17;4.55;;;2.40;;
28245;SDS011;15510;52.512;13.300;2022-10-17T15:50:49;16.13;;;9.63;;
28245;SDS011;15510;52.512;13.300;2022-10-17T15:53:15;9.98;;;5.22;;
28245;SDS011;15510;52.512;13.300;2022-10-17T15:55:40;7.50;;;3.40;;
28245;SDS011;15510;52.512;13.300;2022-10-17T15:58:09;9.52;;;2.78;;
28245;SDS011;15510;52.512;13.300;2022-10-17T16:00:39;8.40;;;2.83;;
28245;SDS011;15510;52.512;13.300;2022-10-17T16:03:04;6.05;;;2.90;;
28245;SDS011;15510;52.512;13.300;2022-10-17T16:05:30;4.47;;;2.38;;
28245;SDS011;15510;52.512;13.300;2022-10-17T16:07:56;9.20;;;4.22;;
28245;SDS011;15510;52.512;13.300;2022-10-17T16:10:23;11.85;;;4.88;;
28245;SDS011;15510;52.512;13.300;2022-10-17T16:12:50;7.03;;;3.90;;
28245;SDS011;15510;52.512;13.300;2022-10-17T16:15:17;6.35;;;3.05;;
28245;SDS011;15510;52.512;13.300;2022-10-17T16:17:47;7.80;;;3.47;;
28245;SDS011;15510;52.512;13.300;2022-10-17T16:20:14;5.68;;;3.55;;
28245;SDS011;15510;52.512;13.300;2022-10-17T16:22:41;13.05;;;5.82;;
28245;SDS011;15510;52.512;13.300;2022-10-17T16:25:19;6.57;;;4.60;;
28245;SDS011;15510;52.512;13.300;2022-10-17T16:27:50;4.90;;;3.65;;
28245;SDS011;15510;52.512;13.300;2022-10-17T16:30:18;8.93;;;3.60;;
28245;SDS011;15510;52.512;13.300;2022-10-17T16:32:44;5.28;;;3.03;;
28245;SDS011;15510;52.512;13.300;2022-10-17T16:35:13;3.78;;;3.25;;
28245;SDS011;15510;52.512;13.300;2022-10-17T16:37:42;4.47;;;2.67;;
28245;SDS011;15510;52.512;13.300;2022-10-17T16:40:07;4.47;;;3.03;;
28245;SDS011;15510;52.512;13.300;2022-10-17T16:42:33;5.15;;;2.95;;
28245;SDS011;15510;52.512;13.300;2022-10-17T16:44:59;2.70;;;2.33;;